createdAt,value
2023-02-12T00:00:09.236Z,-2.26
2023-02-12T00:02:36.381Z,-2.62
2023-02-12T00:05:03.787Z,-2.44
2023-02-12T00:07:31.626Z,-2.53
2023-02-12T00:09:58.452Z,-2.81
2023-02-12T00:12:25.790Z,-3.03
2023-02-12T00:14:52.667Z,-2.68
2023-02-12T00:17:19.570Z,-2.41
2023-02-12T00:19:48.812Z,-2.47
2023-02-12T00:22:15.686Z,-2.88
2023-02-12T00:24:42.499Z,-2.52
2023-02-12T00:27:09.715Z,-2.64
2023-02-12T00:29:37.697Z,-2.48
2023-02-12T00:32:04.542Z,-2.86
2023-02-12T00:34:31.893Z,-2.38
2023-02-12T00:36:58.862Z,-2.43
2023-02-12T00:39:25.820Z,-2.38
2023-02-12T00:41:53.269Z,-2.31
2023-02-12T00:44:20.192Z,-2.12
2023-02-12T00:46:47.331Z,-2.01
2023-02-12T00:49:14.846Z,-2.80
2023-02-12T00:51:42.001Z,-2.53
2023-02-12T00:54:08.863Z,-2.61
2023-02-12T00:56:35.952Z,-2.40
2023-02-12T00:59:03.223Z,-2.39
2023-02-12T01:01:30.091Z,-2.58
2023-02-12T01:03:57.302Z,-2.71
2023-02-12T01:06:24.264Z,-2.80
2023-02-12T01:08:52.366Z,-2.79
2023-02-12T01:11:20.149Z,-2.93
2023-02-12T01:13:47.160Z,-2.84
2023-02-12T01:16:24.994Z,-2.67
2023-02-12T01:18:55.957Z,-2.88
2023-02-12T01:21:27.003Z,-2.84
2023-02-12T01:23:53.913Z,-2.90
2023-02-12T01:26:21.965Z,-2.55
2023-02-12T01:28:51.607Z,-2.69
2023-02-12T01:31:22.818Z,-2.82
2023-02-12T01:33:55.744Z,-2.85
2023-02-12T01:36:23.392Z,-2.78
2023-02-12T01:38:50.781Z,-2.80
2023-02-12T01:41:25.439Z,-3.11
2023-02-12T01:44:18.414Z,-3.62
2023-02-12T01:46:48.261Z,-3.31
2023-02-12T01:49:24.724Z,-3.01
2023-02-12T01:51:56.439Z,-2.93
2023-02-12T01:54:26.057Z,-3.54
2023-02-12T01:56:53.567Z,-3.44
2023-02-12T01:59:21.383Z,-3.82
2023-02-12T02:01:48.634Z,-3.65
2023-02-12T02:04:20.078Z,-3.35
2023-02-12T02:06:54.086Z,-3.33
2023-02-12T02:09:21.155Z,-3.06
2023-02-12T02:12:06.465Z,-3.26
2023-02-12T02:14:33.979Z,-3.28
2023-02-12T02:17:03.832Z,-3.24
2023-02-12T02:20:09.572Z,-3.25
2023-02-12T02:22:39.454Z,-3.18
2023-02-12T02:25:26.610Z,-3.25
2023-02-12T02:28:09.940Z,-2.81
2023-02-12T02:31:16.538Z,-3.14
2023-02-12T02:33:49.562Z,-2.88
2023-02-12T02:36:28.313Z,-3.03
2023-02-12T02:39:23.669Z,-2.62
2023-02-12T02:42:08.414Z,-2.93
2023-02-12T02:45:05.831Z,-2.75
2023-02-12T02:47:40.153Z,-3.16
2023-02-12T02:50:13.029Z,-3.29
2023-02-12T02:52:53.041Z,-3.63
2023-02-12T02:55:23.573Z,-3.80
2023-02-12T02:58:04.083Z,-3.92
2023-02-12T03:00:45.042Z,-3.71
2023-02-12T03:03:30.609Z,-3.90
2023-02-12T03:06:09.712Z,-3.62
2023-02-12T03:08:42.448Z,-3.31
2023-02-12T03:11:19.687Z,-3.38
2023-02-12T03:13:58.031Z,-3.36
2023-02-12T03:16:40.669Z,-3.29
2023-02-12T03:19:15.023Z,-3.15
2023-02-12T03:21:47.329Z,-3.24
2023-02-12T03:24:33.097Z,-3.58
2023-02-12T03:27:15.137Z,-4.02
2023-02-12T03:29:41.983Z,-3.60
2023-02-12T03:32:23.154Z,-4.00
2023-02-12T03:35:07.657Z,-3.81
2023-02-12T03:37:39.764Z,-3.76
2023-02-12T03:40:31.572Z,-3.29
2023-02-12T03:43:17.306Z,-3.68
2023-02-12T03:45:53.049Z,-3.50
2023-02-12T03:48:45.319Z,-3.57
2023-02-12T03:51:23.686Z,-3.28
2023-02-12T03:53:50.892Z,-3.00
2023-02-12T03:56:52.448Z,-3.37
2023-02-12T03:59:21.543Z,-2.96
2023-02-12T04:01:50.413Z,-3.29
2023-02-12T04:04:17.921Z,-3.13
2023-02-12T04:06:48.308Z,-3.42
2023-02-12T04:09:15.901Z,-3.33
2023-02-12T04:11:42.710Z,-3.23
2023-02-12T04:14:15.534Z,-3.34
2023-02-12T04:17:21.545Z,-3.15
2023-02-12T04:20:08.843Z,-3.46
2023-02-12T04:22:54.244Z,-3.28
2023-02-12T04:25:52.966Z,-2.98
2023-02-12T04:28:35.618Z,-3.26
2023-02-12T04:31:16.217Z,-2.88
2023-02-12T04:33:50.093Z,-2.47
2023-02-12T04:36:25.530Z,-2.79
2023-02-12T04:38:58.025Z,-2.68
2023-02-12T04:41:26.092Z,-2.60
2023-02-12T04:43:52.925Z,-2.47
2023-02-12T04:46:19.869Z,-2.72
2023-02-12T04:48:56.578Z,-2.67
2023-02-12T04:51:23.478Z,-2.73
2023-02-12T04:53:50.732Z,-2.55
2023-02-12T04:56:18.140Z,-2.11
2023-02-12T04:58:45.131Z,-2.51
2023-02-12T05:01:12.069Z,-2.44
2023-02-12T05:03:38.983Z,-2.39
2023-02-12T05:06:08.783Z,-2.22
2023-02-12T05:08:36.343Z,-2.09
2023-02-12T05:11:11.236Z,-1.88
2023-02-12T05:13:38.610Z,-2.07
2023-02-12T05:16:06.696Z,-2.24
2023-02-12T05:18:35.282Z,-2.70
2023-02-12T05:21:04.930Z,-2.75
2023-02-12T05:23:36.129Z,-2.40
2023-02-12T05:26:09.165Z,-2.75
2023-02-12T05:28:36.617Z,-2.75
2023-02-12T05:31:06.761Z,-2.70
2023-02-12T05:33:39.041Z,-2.66
2023-02-12T05:36:12.980Z,-2.96
2023-02-12T05:38:40.341Z,-2.49
2023-02-12T05:41:10.221Z,-2.35
2023-02-12T05:43:39.432Z,-2.45
2023-02-12T05:46:07.520Z,-2.23
2023-02-12T05:48:35.203Z,-2.60
2023-02-12T05:51:04.221Z,-2.08
2023-02-12T05:53:31.923Z,-1.62
2023-02-12T05:56:22.358Z,-1.85
2023-02-12T05:58:54.310Z,-2.23
2023-02-12T06:01:28.504Z,-2.00
2023-02-12T06:03:55.672Z,-1.96
2023-02-12T06:06:22.801Z,-1.59
2023-02-12T06:08:50.134Z,-1.85
2023-02-12T06:11:26.278Z,-1.75
2023-02-12T06:14:10.538Z,-1.85
2023-02-12T06:16:42.348Z,-1.81
2023-02-12T06:19:15.850Z,-2.17
2023-02-12T06:21:46.358Z,-2.02
2023-02-12T06:24:35.828Z,-2.15
2023-02-12T06:27:05.083Z,-1.72
2023-02-12T06:29:33.748Z,-1.85
2023-02-12T06:32:03.884Z,-1.80
2023-02-12T06:34:30.919Z,-1.64
2023-02-12T06:36:58.003Z,-1.81
2023-02-12T06:39:25.094Z,-1.59
2023-02-12T06:41:52.087Z,-1.44
2023-02-12T06:44:19.277Z,-1.57
2023-02-12T06:46:46.209Z,-1.48
2023-02-12T06:49:14.765Z,-1.74
2023-02-12T06:51:42.147Z,-1.67
2023-02-12T06:54:14.528Z,-1.44
2023-02-12T06:56:41.557Z,-1.16
2023-02-12T06:59:15.770Z,-1.38
2023-02-12T07:01:44.173Z,-1.70
2023-02-12T07:04:14.982Z,-1.66
2023-02-12T07:06:43.320Z,-1.54
2023-02-12T07:09:10.297Z,-1.59
2023-02-12T07:11:38.587Z,-1.34
2023-02-12T07:14:07.008Z,-1.48
2023-02-12T07:16:36.340Z,-1.60
2023-02-12T07:19:03.378Z,-1.45
2023-02-12T07:21:30.989Z,-1.41
2023-02-12T07:23:57.948Z,-1.46
2023-02-12T07:26:24.846Z,-1.04
2023-02-12T07:28:52.033Z,-1.07
2023-02-12T07:31:22.922Z,-0.82
2023-02-12T07:33:54.110Z,-0.63
2023-02-12T07:36:21.598Z,-0.09
2023-02-12T07:38:48.625Z,-0.51
2023-02-12T07:41:21.892Z,-0.37
2023-02-12T07:43:50.043Z,-0.46
2023-02-12T07:46:19.950Z,-0.13
2023-02-12T07:48:48.364Z,0.20
2023-02-12T07:51:29.438Z,0.35
2023-02-12T07:53:56.656Z,0.84
2023-02-12T07:56:26.146Z,2.17
2023-02-12T07:58:53.893Z,3.91
2023-02-12T08:01:23.354Z,3.62
2023-02-12T08:03:51.408Z,2.62
2023-02-12T08:06:25.944Z,2.26
2023-02-12T08:08:56.621Z,2.23
2023-02-12T08:11:25.404Z,2.25
2023-02-12T08:13:52.761Z,2.22
2023-02-12T08:16:21.780Z,2.23
2023-02-12T08:18:49.920Z,2.12
2023-02-12T08:21:19.130Z,2.40
2023-02-12T08:23:46.642Z,2.31
2023-02-12T08:26:29.048Z,2.30
2023-02-12T08:29:02.522Z,2.26
2023-02-12T08:31:32.255Z,2.21
2023-02-12T08:33:59.899Z,2.33
2023-02-12T08:36:28.847Z,2.62
2023-02-12T08:38:59.541Z,2.61
2023-02-12T08:41:28.694Z,2.47
2023-02-12T08:44:00.740Z,2.32
2023-02-12T08:46:30.326Z,2.50
2023-02-12T08:48:59.715Z,2.53
2023-02-12T08:51:31.062Z,2.49
2023-02-12T08:54:00.525Z,2.73
2023-02-12T08:56:30.007Z,2.85
2023-02-12T08:59:01.962Z,2.61
2023-02-12T09:01:30.910Z,2.78
2023-02-12T09:03:57.739Z,2.85
2023-02-12T09:06:26.493Z,2.81
2023-02-12T09:08:54.614Z,2.99
2023-02-12T09:11:30.874Z,2.94
2023-02-12T09:14:05.805Z,2.86
2023-02-12T09:16:35.565Z,2.93
2023-02-12T09:19:03.951Z,2.98
2023-02-12T09:21:31.242Z,3.09
2023-02-12T09:23:58.481Z,3.35
2023-02-12T09:26:26.310Z,3.29
2023-02-12T09:28:54.081Z,3.33
2023-02-12T09:31:26.801Z,3.36
2023-02-12T09:33:56.339Z,3.31
2023-02-12T09:36:23.158Z,3.50
2023-02-12T09:38:50.483Z,3.47
2023-02-12T09:41:42.788Z,3.72
2023-02-12T09:44:19.885Z,3.88
2023-02-12T09:46:58.997Z,3.94
2023-02-12T09:49:29.167Z,3.78
2023-02-12T09:51:57.086Z,3.78
2023-02-12T09:54:31.525Z,3.90
2023-02-12T09:57:11.012Z,4.05
2023-02-12T09:59:44.145Z,4.00
2023-02-12T10:02:22.249Z,3.93
2023-02-12T10:05:00.787Z,3.84
2023-02-12T10:07:47.234Z,3.87
2023-02-12T10:10:36.069Z,3.89
2023-02-12T10:13:20.474Z,3.85
2023-02-12T10:16:08.304Z,3.96
2023-02-12T10:18:41.295Z,3.99
2023-02-12T10:21:59.607Z,3.73
2023-02-12T10:24:55.630Z,3.70
2023-02-12T10:27:40.505Z,3.74
2023-02-12T10:34:09.554Z,3.65
2023-02-12T10:37:00.197Z,3.69
2023-02-12T10:43:28.413Z,3.98
2023-02-12T10:46:03.567Z,4.31
2023-02-12T10:48:42.924Z,4.22
2023-02-12T10:54:52.538Z,4.05
2023-02-12T10:57:33.199Z,4.19
2023-02-12T11:00:34.783Z,4.30
2023-02-12T11:03:36.528Z,4.17
2023-02-12T11:16:18.302Z,4.03
2023-02-12T11:48:32.566Z,4.11
2023-02-12T11:51:29.529Z,4.06
2023-02-12T11:53:59.808Z,4.39
2023-02-12T12:02:22.024Z,4.32
2023-02-12T12:04:52.442Z,4.47
2023-02-12T12:07:35.589Z,4.44
2023-02-12T12:10:12.695Z,4.55
2023-02-12T12:12:56.904Z,4.79
2023-02-12T12:15:48.850Z,5.11
2023-02-12T12:19:02.241Z,5.06
2023-02-12T12:21:54.656Z,5.00
2023-02-12T12:24:34.559Z,4.79
2023-02-12T12:27:24.621Z,5.17
2023-02-12T12:30:06.404Z,5.14
2023-02-12T12:32:48.507Z,5.15
2023-02-12T12:35:20.263Z,5.36
2023-02-12T12:38:33.675Z,5.23
2023-02-12T12:41:26.676Z,5.33
2023-02-12T12:43:56.570Z,5.40
2023-02-12T12:46:45.588Z,5.25
2023-02-12T12:49:22.412Z,5.44
2023-02-12T12:52:03.714Z,5.52
2023-02-12T12:54:45.536Z,5.14
2023-02-12T12:57:29.972Z,5.78
2023-02-12T13:00:13.043Z,5.67
2023-02-12T13:03:05.626Z,5.47
2023-02-12T13:05:55.927Z,5.57
2023-02-12T13:08:35.659Z,5.76
2023-02-12T13:11:36.058Z,5.61
2023-02-12T13:14:40.832Z,5.57
2023-02-12T13:17:25.480Z,5.64
2023-02-12T13:20:03.876Z,5.61
2023-02-12T13:23:01.654Z,5.52
2023-02-12T13:25:49.061Z,5.31
2023-02-12T13:28:36.300Z,5.35
2023-02-12T13:31:30.150Z,5.27
2023-02-12T13:34:30.853Z,5.32
2023-02-12T13:52:48.348Z,5.00
2023-02-12T13:56:34.011Z,5.07
2023-02-12T14:01:49.778Z,5.21
2023-02-12T14:04:20.210Z,5.22
2023-02-12T14:07:11.826Z,5.31
2023-02-12T14:09:42.765Z,5.21
2023-02-12T14:12:18.879Z,5.20
2023-02-12T14:15:01.382Z,5.05
2023-02-12T14:30:03.792Z,4.97
2023-02-12T14:32:57.674Z,5.04
2023-02-12T14:35:48.266Z,5.01
2023-02-12T14:38:16.388Z,5.00
2023-02-12T14:40:51.008Z,4.94
2023-02-12T14:44:02.174Z,4.83
2023-02-12T14:46:35.274Z,4.86
2023-02-12T14:49:19.847Z,4.74
2023-02-12T14:57:47.940Z,4.58
2023-02-12T15:00:22.195Z,4.51
2023-02-12T15:12:32.887Z,4.22
2023-02-12T15:15:13.516Z,4.33
2023-02-12T15:17:45.095Z,4.49
2023-02-12T15:20:23.049Z,4.33
2023-02-12T15:22:53.117Z,4.47
2023-02-12T15:25:25.663Z,4.35
2023-02-12T15:28:00.789Z,4.37
2023-02-12T15:38:36.542Z,4.13
2023-02-12T15:41:27.099Z,4.08
2023-02-12T15:44:05.890Z,4.02
2023-02-12T15:46:35.573Z,4.09
2023-02-12T15:49:23.851Z,3.97
2023-02-12T15:51:51.066Z,4.02
2023-02-12T15:54:20.871Z,3.96
2023-02-12T15:56:54.621Z,4.00
2023-02-12T15:59:24.916Z,3.97
2023-02-12T16:02:05.082Z,3.99
2023-02-12T16:04:42.749Z,3.89
2023-02-12T16:07:13.819Z,3.89
2023-02-12T16:09:47.927Z,3.82
2023-02-12T16:12:20.654Z,3.86
2023-02-12T16:15:06.289Z,3.79
2023-02-12T16:17:44.465Z,3.78
2023-02-12T16:20:20.573Z,3.72
2023-02-12T16:22:51.487Z,3.74
2023-02-12T16:25:29.102Z,3.66
2023-02-12T16:28:28.067Z,3.72
2023-02-12T16:31:18.852Z,3.73
2023-02-12T16:34:08.630Z,3.72
2023-02-12T16:36:37.892Z,3.68
2023-02-12T16:39:06.762Z,3.56
2023-02-12T16:41:35.741Z,3.65
2023-02-12T16:44:02.844Z,3.59
2023-02-12T16:46:35.590Z,3.52
2023-02-12T16:49:02.843Z,3.54
2023-02-12T16:51:37.348Z,3.49
2023-02-12T16:54:24.387Z,3.58
2023-02-12T16:56:51.989Z,3.53
2023-02-12T16:59:19.082Z,3.43
2023-02-12T17:02:10.672Z,3.42
2023-02-12T17:04:37.724Z,3.39
2023-02-12T17:07:04.525Z,3.39
2023-02-12T17:09:31.549Z,3.44
2023-02-12T17:11:58.388Z,3.36
2023-02-12T17:14:27.221Z,3.34
2023-02-12T17:16:54.096Z,3.34
2023-02-12T17:19:22.029Z,3.23
2023-02-12T17:21:49.575Z,3.28
2023-02-12T17:24:26.339Z,3.25
2023-02-12T17:26:54.318Z,3.22
2023-02-12T17:29:23.538Z,3.32
2023-02-12T17:31:54.732Z,3.26
2023-02-12T17:34:26.109Z,3.23
2023-02-12T17:36:57.832Z,3.24
2023-02-12T17:39:24.674Z,3.16
2023-02-12T17:41:54.503Z,3.26
2023-02-12T17:44:35.773Z,3.31
2023-02-12T17:47:02.804Z,3.32
2023-02-12T17:49:31.477Z,3.26
2023-02-12T17:52:01.614Z,3.24
2023-02-12T17:54:28.561Z,3.37
2023-02-12T17:56:58.363Z,3.30
2023-02-12T17:59:27.665Z,3.22
2023-02-12T18:01:54.439Z,3.30
2023-02-12T18:04:21.555Z,3.18
2023-02-12T18:06:48.993Z,3.20
2023-02-12T18:09:21.307Z,3.22
2023-02-12T18:11:52.400Z,3.21
2023-02-12T18:14:22.336Z,3.24
2023-02-12T18:17:05.876Z,3.06
2023-02-12T18:19:37.292Z,3.06
2023-02-12T18:22:11.570Z,3.28
2023-02-12T18:24:53.316Z,3.30
2023-02-12T18:27:20.760Z,3.36
2023-02-12T18:29:48.966Z,3.29
2023-02-12T18:32:16.579Z,3.17
2023-02-12T18:34:44.321Z,3.26
2023-02-12T18:38:11.222Z,3.15
2023-02-12T18:40:40.639Z,3.33
2023-02-12T18:43:10.024Z,3.13
2023-02-12T18:45:39.592Z,3.19
2023-02-12T18:48:09.615Z,3.11
2023-02-12T18:50:37.303Z,3.10
2023-02-12T18:53:04.751Z,3.18
2023-02-12T18:55:31.703Z,3.05
2023-02-12T18:57:58.564Z,3.12
2023-02-12T19:00:30.966Z,3.14
2023-02-12T19:02:58.520Z,3.08
2023-02-12T19:05:26.647Z,3.06
2023-02-12T19:08:11.486Z,3.08
2023-02-12T19:10:42.920Z,2.96
2023-02-12T19:13:10.557Z,2.93
2023-02-12T19:15:41.210Z,2.97
2023-02-12T19:18:08.213Z,3.15
2023-02-12T19:20:35.161Z,3.00
2023-02-12T19:23:04.926Z,2.98
2023-02-12T19:25:34.444Z,3.06
2023-02-12T19:28:01.364Z,3.03
2023-02-12T19:30:28.505Z,3.10
2023-02-12T19:32:55.554Z,2.84
2023-02-12T19:35:22.558Z,2.85
2023-02-12T19:37:50.708Z,2.86
2023-02-12T19:40:17.659Z,2.96
2023-02-12T19:42:47.262Z,2.80
2023-02-12T19:45:14.538Z,2.83
2023-02-12T19:47:41.551Z,2.78
2023-02-12T19:50:09.559Z,2.70
2023-02-12T19:52:38.141Z,2.72
2023-02-12T19:55:05.191Z,2.74
2023-02-12T19:57:32.035Z,2.61
2023-02-12T19:59:59.258Z,2.68
2023-02-12T20:02:26.362Z,2.70
2023-02-12T20:04:53.344Z,2.72
2023-02-12T20:07:20.568Z,2.69
2023-02-12T20:09:52.430Z,2.27
2023-02-12T20:12:19.344Z,2.50
2023-02-12T20:14:46.861Z,2.40
2023-02-12T20:17:14.423Z,2.39
2023-02-12T20:19:41.342Z,2.36
2023-02-12T20:22:09.299Z,2.12
2023-02-12T20:24:36.348Z,2.00
2023-02-12T20:27:03.965Z,1.78
2023-02-12T20:29:31.830Z,1.94
2023-02-12T20:31:58.911Z,1.80
2023-02-12T20:34:26.560Z,1.60
2023-02-12T20:36:54.515Z,1.72
2023-02-12T20:39:21.710Z,1.38
2023-02-12T20:41:49.087Z,1.45
2023-02-12T20:44:20.277Z,1.29
2023-02-12T20:46:56.582Z,1.38
2023-02-12T20:49:27.707Z,1.48
2023-02-12T20:54:48.064Z,1.40
2023-02-12T20:57:27.423Z,1.24
2023-02-12T20:59:56.379Z,1.08
2023-02-12T21:02:23.635Z,0.93
2023-02-12T21:04:56.621Z,1.11
2023-02-12T21:07:26.406Z,1.01
2023-02-12T21:09:54.295Z,0.95
2023-02-12T21:12:21.231Z,1.05
2023-02-12T21:14:48.475Z,0.78
2023-02-12T21:17:15.475Z,0.70
2023-02-12T21:19:45.223Z,0.84
2023-02-12T21:22:12.203Z,0.94
2023-02-12T21:24:39.491Z,0.98
2023-02-12T21:27:07.096Z,0.87
2023-02-12T21:29:34.116Z,0.83
2023-02-12T21:32:03.067Z,0.81
2023-02-12T21:34:35.349Z,1.19
2023-02-12T21:37:08.257Z,1.12
2023-02-12T21:39:36.072Z,0.88
2023-02-12T21:42:06.674Z,0.87
2023-02-12T21:44:40.978Z,0.82
2023-02-12T21:47:09.439Z,0.83
2023-02-12T21:49:42.664Z,0.93
2023-02-12T21:52:09.632Z,0.93
2023-02-12T21:54:36.613Z,0.60
2023-02-12T21:57:09.159Z,0.39
2023-02-12T21:59:35.980Z,0.80
2023-02-12T22:02:03.231Z,0.44
2023-02-12T22:04:30.676Z,0.57
2023-02-12T22:07:00.186Z,0.46
2023-02-12T22:09:27.439Z,0.40
2023-02-12T22:11:54.987Z,0.46
2023-02-12T22:14:23.120Z,0.65
2023-02-12T22:16:51.034Z,0.73
2023-02-12T22:19:18.107Z,0.53
2023-02-12T22:21:45.251Z,0.65
2023-02-12T22:24:15.582Z,0.53
2023-02-12T22:26:42.541Z,0.79
2023-02-12T22:29:11.808Z,0.61
2023-02-12T22:31:40.638Z,0.56
2023-02-12T22:34:14.015Z,0.70
2023-02-12T22:36:44.235Z,0.16
2023-02-12T22:39:15.804Z,0.31
2023-02-12T22:41:43.658Z,0.33
2023-02-12T22:44:13.427Z,0.27
2023-02-12T22:47:02.648Z,0.33
2023-02-12T22:49:29.897Z,0.36
2023-02-12T22:51:58.145Z,0.23
2023-02-12T22:54:26.207Z,0.29
2023-02-12T22:56:58.090Z,0.44
2023-02-12T22:59:25.590Z,0.29
2023-02-12T23:01:52.633Z,0.35
2023-02-12T23:04:28.805Z,0.47
2023-02-12T23:06:55.989Z,0.27
2023-02-12T23:09:25.560Z,0.25
2023-02-12T23:11:52.616Z,0.17
2023-02-12T23:14:25.820Z,0.16
2023-02-12T23:16:53.267Z,0.20
2023-02-12T23:19:22.437Z,-0.15
2023-02-12T23:21:51.829Z,0.37
2023-02-12T23:24:19.037Z,0.11
2023-02-12T23:26:48.719Z,-0.18
2023-02-12T23:29:18.866Z,-0.16
2023-02-12T23:31:51.233Z,-0.23
2023-02-12T23:34:18.526Z,-0.34
2023-02-12T23:36:45.628Z,-0.03
2023-02-12T23:39:13.576Z,-0.20
2023-02-12T23:41:40.508Z,-0.13
2023-02-12T23:44:09.831Z,-0.07
2023-02-12T23:46:37.501Z,-0.01
2023-02-12T23:49:04.939Z,0.03
2023-02-12T23:51:35.571Z,0.11
2023-02-12T23:54:05.220Z,-0.19
2023-02-12T23:56:32.100Z,-0.36
2023-02-12T23:58:58.990Z,-0.34
